Time;durP1;ratioP1;P1;durP2;ratioP2;P2;SDS_P1;SDS_P2;PMS_P1;PMS_P2;Temp;Humidity;BMP_temperature;BMP_pressure;BME280_temperature;BME280_humidity;BME280_pressure;Samples;Min_cycle;Max_cycle;Signal;HPM_P1;HPM_P2
2021/08/06 00:00:53;;;;;;;4.20;2.80;;;;;;;15.39;67.49;100090.38;5066881;28;20024;-69
2021/08/06 00:03:18;;;;;;;6.05;3.45;;;;;;;15.43;67.28;100087.63;5065774;28;20112;-67
2021/08/06 00:05:44;;;;;;;4.47;2.70;;;;;;;15.28;67.81;100099.47;5067244;28;20021;-67
2021/08/06 00:08:09;;;;;;;4.65;2.50;;;;;;;15.27;67.75;100087.28;5067037;28;20556;-69
2021/08/06 00:10:35;;;;;;;8.15;2.90;;;;;;;15.30;67.70;100086.34;5066837;28;20044;-76
2021/08/06 00:13:00;;;;;;;4.47;3.00;;;;;;;15.15;67.97;100085.06;5065418;28;20036;-75
2021/08/06 00:15:25;;;;;;;5.57;3.63;;;;;;;15.18;67.71;100095.44;5065522;28;20387;-73
2021/08/06 00:17:51;;;;;;;6.53;3.50;;;;;;;15.11;68.10;100092.19;5066804;28;20031;-74
2021/08/06 00:20:16;;;;;;;3.58;2.65;;;;;;;15.11;68.22;100098.25;5066904;28;20025;-72
2021/08/06 00:22:42;;;;;;;4.25;2.80;;;;;;;15.06;68.22;100081.88;5066667;28;20025;-73
2021/08/06 00:25:08;;;;;;;5.22;2.85;;;;;;;15.07;67.93;100088.81;5066636;28;20021;-73
2021/08/06 00:27:33;;;;;;;4.45;3.05;;;;;;;15.06;67.96;100096.69;5066712;28;20048;-72
2021/08/06 00:29:59;;;;;;;5.60;2.47;;;;;;;15.03;68.06;100092.41;5066442;28;20025;-73
2021/08/06 00:32:25;;;;;;;7.15;3.00;;;;;;;14.94;68.25;100087.47;5066708;28;20033;-73
2021/08/06 00:34:50;;;;;;;5.50;3.33;;;;;;;14.98;67.92;100094.31;5066579;28;20080;-72
2021/08/06 00:37:18;;;;;;;7.13;3.50;;;;;;;14.94;68.11;100085.72;5066654;28;20133;-76
2021/08/06 00:39:44;;;;;;;6.22;3.15;;;;;;;14.91;68.21;100084.97;5066502;28;20036;-73
2021/08/06 00:42:09;;;;;;;4.50;2.70;;;;;;;14.87;68.08;100103.34;5066440;28;20029;-73
2021/08/06 00:44:34;;;;;;;6.68;2.90;;;;;;;14.85;68.43;100099.94;5065146;28;20028;-73
2021/08/06 00:47:00;;;;;;;4.45;2.83;;;;;;;14.81;68.39;100095.69;5064996;28;20036;-74
2021/08/06 00:49:26;;;;;;;3.78;2.90;;;;;;;14.86;68.42;100106.88;5066475;28;20013;-73
2021/08/06 00:51:51;;;;;;;3.85;2.85;;;;;;;14.77;68.46;100101.03;5064854;28;20044;-74
2021/08/06 00:54:18;;;;;;;3.83;2.63;;;;;;;14.75;68.38;100091.50;5065909;28;20036;-71
2021/08/06 00:56:47;;;;;;;4.72;3.05;;;;;;;14.71;68.78;100102.09;5066089;28;20079;-72
2021/08/06 00:59:13;;;;;;;4.32;3.00;;;;;;;14.73;68.62;100097.66;5064743;28;20052;-71
2021/08/06 01:01:38;;;;;;;5.85;3.00;;;;;;;14.73;68.69;100100.28;5066055;28;20025;-73
2021/08/06 01:04:04;;;;;;;8.57;2.60;;;;;;;14.82;68.31;100104.41;5065914;28;20017;-72
2021/08/06 01:06:47;;;;;;;7.05;2.90;;;;;;;14.76;68.44;100102.78;5064710;28;20029;-73
2021/08/06 01:09:26;;;;;;;6.15;3.03;;;;;;;14.72;68.43;100099.44;5065911;28;20060;-74
2021/08/06 01:11:55;;;;;;;4.07;2.90;;;;;;;14.72;68.46;100102.06;5065537;28;20061;-73
2021/08/06 01:14:27;;;;;;;5.78;2.58;;;;;;;14.73;68.65;100105.50;5064487;28;20025;-74
2021/08/06 01:16:56;;;;;;;6.88;3.05;;;;;;;14.63;68.65;100094.50;5064665;28;20453;-74
2021/08/06 01:19:36;;;;;;;4.25;2.60;;;;;;;14.72;68.49;100103.81;5065918;28;20087;-73
2021/08/06 01:22:14;;;;;;;6.35;2.90;;;;;;;14.64;68.52;100098.81;5065607;28;20020;-73
2021/08/06 01:24:42;;;;;;;7.35;3.10;;;;;;;14.66;68.48;100107.47;5065464;28;20142;-73
2021/08/06 01:27:09;;;;;;;4.68;2.60;;;;;;;14.63;68.45;100097.13;5065504;28;20036;-74
2021/08/06 01:29:35;;;;;;;3.17;2.53;;;;;;;14.58;68.67;100097.25;5065413;28;20028;-75
2021/08/06 01:32:00;;;;;;;3.88;2.88;;;;;;;14.65;68.40;100107.50;5064176;28;20023;-72
2021/08/06 01:34:25;;;;;;;4.75;2.70;;;;;;;14.61;68.60;100091.94;5065239;28;20072;-73
2021/08/06 01:36:51;;;;;;;5.93;2.75;;;;;;;14.65;68.35;100097.06;5065240;28;20032;-72
2021/08/06 01:39:18;;;;;;;4.00;2.75;;;;;;;14.65;68.48;100104.91;5065210;28;20033;-72
2021/08/06 01:42:10;;;;;;;7.10;3.20;;;;;;;14.65;68.72;100102.28;5065120;28;20025;-73
2021/08/06 01:44:53;;;;;;;7.50;3.20;;;;;;;14.60;68.68;100105.88;5063961;28;20017;-73
2021/08/06 01:47:45;;;;;;;4.80;2.53;;;;;;;14.68;68.78;100110.03;5065344;28;20032;-74
2021/08/06 01:50:14;;;;;;;3.55;2.20;;;;;;;14.72;68.94;100106.41;5065231;28;20052;-72
2021/08/06 01:52:59;;;;;;;5.97;2.22;;;;;;;14.73;69.25;100114.19;5065170;28;20029;-74
2021/08/06 01:55:27;;;;;;;3.88;2.70;;;;;;;14.76;69.42;100100.19;5064900;28;20029;-72
2021/08/06 01:57:54;;;;;;;4.22;3.17;;;;;;;14.73;69.95;100102.88;5064958;28;20031;-74
2021/08/06 02:00:19;;;;;;;5.75;3.20;;;;;;;14.75;70.15;100108.94;5063539;28;20072;-77
2021/08/06 02:02:45;;;;;;;5.95;2.58;;;;;;;14.72;70.47;100109.03;5063656;28;20476;-75
2021/08/06 02:05:11;;;;;;;4.32;2.45;;;;;;;14.66;70.54;100109.22;5064731;28;20373;-73
2021/08/06 02:07:36;;;;;;;3.88;2.80;;;;;;;14.67;70.91;100110.91;5064681;28;20054;-73
2021/08/06 02:10:03;;;;;;;4.63;3.15;;;;;;;14.68;71.10;100118.69;5063424;28;20035;-77
2021/08/06 02:12:28;;;;;;;6.07;2.83;;;;;;;14.56;71.60;100114.72;5064648;28;20035;-73
2021/08/06 02:14:54;;;;;;;4.20;3.00;;;;;;;14.59;71.58;100118.97;5064687;28;20025;-74
2021/08/06 02:17:21;;;;;;;5.28;2.90;;;;;;;14.55;72.05;100112.16;5064664;28;20055;-74
2021/08/06 02:19:48;;;;;;;5.10;3.28;;;;;;;14.50;71.90;100102.69;5064554;28;20024;-76
2021/08/06 02:22:15;;;;;;;5.80;2.78;;;;;;;14.49;72.20;100114.03;5063583;28;20024;-71
2021/08/06 02:24:43;;;;;;;4.03;2.42;;;;;;;14.49;72.22;100123.63;5062756;28;20021;-75
2021/08/06 02:27:15;;;;;;;4.47;2.90;;;;;;;14.46;72.09;100108.91;5062694;28;20114;-74
2021/08/06 02:29:43;;;;;;;4.35;2.78;;;;;;;14.49;72.22;100108.81;5064281;28;20344;-72
2021/08/06 02:32:09;;;;;;;4.35;3.25;;;;;;;14.44;72.38;100104.63;5064174;28;20148;-72
2021/08/06 02:34:34;;;;;;;5.75;3.10;;;;;;;14.47;72.30;100121.06;5064114;28;20036;-73
2021/08/06 02:37:00;;;;;;;5.82;3.22;;;;;;;14.43;72.43;100113.34;5063869;28;20040;-74
2021/08/06 02:39:28;;;;;;;3.95;3.00;;;;;;;14.41;72.46;100115.19;5063920;28;20501;-74
2021/08/06 02:41:59;;;;;;;4.60;2.92;;;;;;;14.33;72.51;100107.56;5064011;28;20021;-73
2021/08/06 02:44:25;;;;;;;4.05;3.30;;;;;;;14.30;72.55;100112.84;5063983;28;20028;-72
2021/08/06 02:46:51;;;;;;;5.32;3.25;;;;;;;14.31;72.45;100111.97;5064091;28;20063;-73
2021/08/06 02:49:16;;;;;;;4.43;3.13;;;;;;;14.33;72.59;100105.78;5063833;28;20053;-76
2021/08/06 02:51:42;;;;;;;4.10;2.97;;;;;;;14.32;72.37;100111.06;5062449;28;20036;-73
2021/08/06 02:54:07;;;;;;;3.95;3.03;;;;;;;14.31;72.33;100112.84;5063361;28;20112;-73
2021/08/06 02:56:33;;;;;;;5.78;3.28;;;;;;;14.32;72.54;100105.84;5063662;28;20032;-72
2021/08/06 02:58:58;;;;;;;4.50;2.95;;;;;;;14.29;72.82;100112.00;5063771;28;20021;-72
2021/08/06 03:01:24;;;;;;;4.45;3.72;;;;;;;14.29;72.86;100119.84;5063736;28;20033;-72
2021/08/06 03:03:49;;;;;;;5.38;2.80;;;;;;;14.34;72.79;100114.50;5063688;28;20100;-75
2021/08/06 03:06:15;;;;;;;3.35;2.80;;;;;;;14.36;72.79;100112.69;5063560;28;20046;-73
2021/08/06 03:08:40;;;;;;;5.22;3.33;;;;;;;14.27;73.24;100102.50;5063298;28;20075;-73
2021/08/06 03:11:05;;;;;;;4.25;3.00;;;;;;;14.27;73.21;100098.13;5063606;28;20217;-78
2021/08/06 03:13:31;;;;;;;5.10;3.50;;;;;;;14.37;72.77;100096.13;5063463;28;20029;-74
2021/08/06 03:15:56;;;;;;;4.97;3.05;;;;;;;14.28;73.32;100109.44;5063550;28;20108;-72
2021/08/06 03:18:22;;;;;;;4.43;2.90;;;;;;;14.33;73.02;100108.41;5063490;28;20025;-73
2021/08/06 03:20:47;;;;;;;5.63;3.28;;;;;;;14.24;73.02;100098.22;5063471;28;20029;-71
2021/08/06 03:23:12;;;;;;;4.55;3.35;;;;;;;14.17;73.27;100094.09;5063395;28;20090;-73
2021/08/06 03:25:38;;;;;;;6.38;3.55;;;;;;;14.22;73.24;100098.28;5063173;28;20445;-71
2021/08/06 03:28:03;;;;;;;7.25;3.53;;;;;;;14.29;73.02;100101.56;5061954;28;20028;-73
2021/08/06 03:30:29;;;;;;;5.18;2.58;;;;;;;14.27;73.44;100094.66;5063087;28;20029;-75
2021/08/06 03:32:54;;;;;;;7.10;3.28;;;;;;;14.28;72.92;100094.63;5061834;28;20017;-75
2021/08/06 03:35:20;;;;;;;4.93;3.00;;;;;;;14.33;73.27;100087.50;5063200;28;20044;-72
2021/08/06 03:37:45;;;;;;;3.97;3.08;;;;;;;14.41;73.05;100096.91;5061551;28;20059;-73
2021/08/06 03:40:12;;;;;;;5.43;3.00;;;;;;;14.45;73.02;100093.28;5061716;28;20017;-72
2021/08/06 03:42:39;;;;;;;6.55;2.90;;;;;;;14.62;72.72;100085.78;5063334;28;20084;-73
2021/08/06 03:45:05;;;;;;;4.03;3.05;;;;;;;14.77;72.46;100086.22;5061954;28;20021;-73
2021/08/06 03:47:31;;;;;;;5.43;3.17;;;;;;;14.93;72.19;100089.25;5063222;28;20049;-72
2021/08/06 03:49:56;;;;;;;5.05;3.08;;;;;;;15.09;71.25;100081.78;5063142;28;20031;-72
2021/08/06 03:52:22;;;;;;;5.88;2.83;;;;;;;15.20;70.87;100083.16;5062961;28;20021;-73
2021/08/06 03:54:47;;;;;;;4.75;2.65;;;;;;;15.20;70.35;100075.31;5061604;28;20428;-75
2021/08/06 03:57:12;;;;;;;4.90;2.90;;;;;;;15.14;70.18;100068.53;5063063;28;20025;-73
2021/08/06 03:59:38;;;;;;;4.97;2.42;;;;;;;15.13;69.95;100074.66;5061699;28;20056;-74
2021/08/06 04:02:03;;;;;;;4.63;2.53;;;;;;;15.06;70.08;100071.41;5063146;28;20021;-74
2021/08/06 04:04:29;;;;;;;4.68;2.92;;;;;;;14.98;70.28;100079.47;5062867;28;20025;-73
2021/08/06 04:06:54;;;;;;;3.83;2.70;;;;;;;14.95;70.67;100076.13;5062933;28;20017;-73
2021/08/06 04:09:20;;;;;;;5.00;2.70;;;;;;;15.06;70.87;100060.09;5062904;28;20029;-73
2021/08/06 04:11:45;;;;;;;4.57;2.60;;;;;;;15.27;70.45;100063.75;5063230;28;20027;-72
2021/08/06 04:14:10;;;;;;;4.25;2.50;;;;;;;15.37;70.05;100059.06;5062757;28;20381;-74
2021/08/06 04:16:36;;;;;;;4.63;2.92;;;;;;;15.63;69.57;100069.53;5062816;28;20045;-74
2021/08/06 04:19:01;;;;;;;5.10;2.65;;;;;;;15.83;69.30;100080.16;5062859;28;20061;-73
2021/08/06 04:21:27;;;;;;;3.42;3.00;;;;;;;15.96;69.29;100072.72;5062709;28;20025;-72
2021/08/06 04:23:52;;;;;;;4.47;2.65;;;;;;;16.09;68.01;100073.16;5061247;28;20020;-72
2021/08/06 04:26:17;;;;;;;4.80;2.88;;;;;;;16.01;67.86;100077.81;5062718;28;20025;-73
2021/08/06 04:28:43;;;;;;;5.68;2.60;;;;;;;16.04;67.90;100080.31;5061429;28;20027;-71
2021/08/06 04:31:08;;;;;;;3.60;2.35;;;;;;;16.21;68.25;100071.81;5062765;28;20025;-72
2021/08/06 04:33:34;;;;;;;3.85;2.47;;;;;;;16.67;68.14;100077.97;5061303;28;20028;-73
2021/08/06 04:35:59;;;;;;;4.90;2.30;;;;;;;17.31;67.44;100078.09;5062522;28;20112;-73
2021/08/06 04:38:25;;;;;;;3.80;2.30;;;;;;;18.08;66.37;100073.88;5060812;28;20068;-73
2021/08/06 04:40:51;;;;;;;3.08;2.00;;;;;;;18.85;64.33;100072.16;5062387;28;20017;-72
2021/08/06 04:43:19;;;;;;;5.43;2.38;;;;;;;19.48;62.28;100059.44;5062502;28;20024;-72
2021/08/06 04:45:45;;;;;;;3.03;1.77;;;;;;;20.06;60.79;100063.44;5064130;28;20017;-72
2021/08/06 04:48:10;;;;;;;3.72;2.08;;;;;;;20.67;58.39;100069.84;5066183;28;20047;-72
2021/08/06 04:50:36;;;;;;;3.00;2.00;;;;;;;20.96;56.20;100054.16;5064616;28;20025;-73
2021/08/06 04:53:01;;;;;;;3.97;1.70;;;;;;;20.98;55.36;100057.56;5064873;28;20017;-70
2021/08/06 04:55:27;;;;;;;3.97;1.70;;;;;;;21.14;54.37;100061.94;5065883;28;20409;-71
2021/08/06 04:57:52;;;;;;;2.15;1.45;;;;;;;21.24;53.50;100063.13;5066332;28;20048;-72
2021/08/06 05:00:19;;;;;;;4.35;1.88;;;;;;;21.13;51.74;100063.75;5066019;28;20058;-72
2021/08/06 05:02:45;;;;;;;2.80;1.60;;;;;;;20.69;51.83;100060.03;5066026;28;20029;-72
2021/08/06 05:05:12;;;;;;;2.20;1.77;;;;;;;20.38;52.74;100064.41;5064545;28;20016;-73
2021/08/06 05:07:37;;;;;;;1.95;1.30;;;;;;;20.26;53.24;100058.88;5065863;28;20361;-73
2021/08/06 05:10:04;;;;;;;2.05;1.60;;;;;;;20.38;53.38;100054.72;5065756;28;20025;-72
2021/08/06 05:12:29;;;;;;;2.00;1.42;;;;;;;20.47;52.48;100042.81;5065898;28;20024;-71
2021/08/06 05:14:55;;;;;;;2.45;1.60;;;;;;;20.59;52.44;100051.78;5065946;28;20033;-70
2021/08/06 05:17:20;;;;;;;2.75;1.50;;;;;;;20.75;51.20;100041.22;5065681;28;20513;-75
2021/08/06 05:19:46;;;;;;;3.10;1.92;;;;;;;20.63;51.52;100049.84;5065535;28;20056;-72
2021/08/06 05:22:11;;;;;;;2.10;1.40;;;;;;;20.47;51.91;100037.53;5065609;28;20021;-72
2021/08/06 05:24:37;;;;;;;2.65;1.70;;;;;;;20.53;52.21;100042.47;5063866;28;20025;-72
2021/08/06 05:27:02;;;;;;;3.15;1.40;;;;;;;20.59;51.08;100037.78;5065649;28;20029;-75
2021/08/06 05:29:28;;;;;;;2.58;1.55;;;;;;;20.45;51.86;100042.03;5065344;28;20062;-74
2021/08/06 05:31:53;;;;;;;2.60;1.60;;;;;;;20.43;51.65;100043.94;5063993;28;20016;-72
2021/08/06 05:34:18;;;;;;;2.55;1.60;;;;;;;20.58;51.65;100041.34;5065196;28;20021;-73
2021/08/06 05:36:44;;;;;;;2.85;1.30;;;;;;;20.73;51.40;100026.44;5065305;28;20440;-73
2021/08/06 05:39:10;;;;;;;2.97;1.40;;;;;;;20.81;51.14;100025.03;5065098;28;20064;-71
2021/08/06 05:41:36;;;;;;;3.22;1.70;;;;;;;20.80;50.41;100028.63;5065199;28;20487;-74
2021/08/06 05:44:01;;;;;;;3.03;1.77;;;;;;;20.67;51.24;100022.38;5065202;28;20032;-72
2021/08/06 05:46:26;;;;;;;2.35;1.40;;;;;;;20.64;51.31;100033.09;5065092;28;20028;-74
2021/08/06 05:48:52;;;;;;;2.90;1.75;;;;;;;20.64;51.69;100022.56;5065184;28;20032;-72
2021/08/06 05:51:17;;;;;;;3.42;1.50;;;;;;;20.80;51.64;100025.13;5063498;28;20485;-72
2021/08/06 05:53:42;;;;;;;3.38;1.40;;;;;;;20.97;51.12;100024.22;5064958;28;20025;-72
2021/08/06 05:56:08;;;;;;;3.00;1.30;;;;;;;21.03;51.65;100026.50;5065067;28;20268;-72
2021/08/06 05:58:33;;;;;;;5.80;1.58;;;;;;;21.00;51.18;100029.31;5064784;28;20398;-72
2021/08/06 06:00:59;;;;;;;2.67;1.73;;;;;;;21.08;51.38;100025.34;5063413;28;20047;-72
2021/08/06 06:03:24;;;;;;;3.10;1.30;;;;;;;21.13;50.43;100031.22;5064810;28;20013;-73
2021/08/06 06:05:49;;;;;;;3.92;1.50;;;;;;;21.02;51.39;100024.78;5064894;28;20486;-72
2021/08/06 06:08:15;;;;;;;1.98;1.40;;;;;;;21.02;51.35;100024.78;5063118;28;20024;-73
2021/08/06 06:10:40;;;;;;;2.63;1.20;;;;;;;21.15;50.50;100024.06;5064394;28;20033;-72
2021/08/06 06:13:06;;;;;;;2.00;1.38;;;;;;;21.08;51.32;100028.00;5064498;28;20079;-72
2021/08/06 06:15:31;;;;;;;3.45;1.40;;;;;;;21.20;50.33;100029.06;5064306;28;20489;-72
2021/08/06 06:17:57;;;;;;;2.80;1.42;;;;;;;21.35;49.90;100030.78;5064383;28;20058;-73
2021/08/06 06:20:24;;;;;;;4.13;1.30;;;;;;;21.09;50.83;100019.13;5064345;28;20032;-72
2021/08/06 06:22:49;;;;;;;4.15;1.48;;;;;;;21.23;51.06;100020.97;5064249;28;20057;-72
2021/08/06 06:25:15;;;;;;;3.10;1.27;;;;;;;21.35;50.68;100020.22;5064291;28;20378;-72
2021/08/06 06:27:51;;;;;;;4.47;1.40;;;;;;;21.46;50.49;100024.84;5064243;28;20025;-70
2021/08/06 06:30:16;;;;;;;1.60;1.20;;;;;;;21.51;49.41;100028.06;5062554;28;20063;-72
2021/08/06 06:32:41;;;;;;;2.15;1.40;;;;;;;21.38;49.79;100027.97;5064204;28;20017;-70
2021/08/06 06:35:07;;;;;;;1.45;1.10;;;;;;;21.34;51.03;100020.31;5063916;28;20040;-71
2021/08/06 06:37:33;;;;;;;3.13;1.10;;;;;;;21.61;49.90;100032.78;5063809;28;20137;-72
2021/08/06 06:39:58;;;;;;;1.90;1.10;;;;;;;21.70;49.74;100023.44;5062631;28;20033;-72
2021/08/06 06:42:23;;;;;;;1.40;1.00;;;;;;;21.82;49.27;100029.81;5063828;28;20444;-70
2021/08/06 06:44:49;;;;;;;2.00;1.48;;;;;;;21.87;48.90;100025.09;5063850;28;20151;-74
2021/08/06 06:47:14;;;;;;;3.00;1.30;;;;;;;21.89;49.16;100026.69;5063947;28;20013;-71
2021/08/06 06:49:39;;;;;;;1.92;0.98;;;;;;;22.15;47.66;100032.13;5063853;28;20440;-70
2021/08/06 06:52:05;;;;;;;1.95;1.30;;;;;;;22.32;47.33;100026.72;5063998;28;20032;-70
2021/08/06 06:54:30;;;;;;;2.28;1.30;;;;;;;22.40;47.47;100024.41;5063495;28;20085;-75
2021/08/06 06:56:56;;;;;;;3.92;1.30;;;;;;;22.52;45.57;100022.78;5063635;28;20025;-71
2021/08/06 06:59:21;;;;;;;2.22;1.20;;;;;;;22.47;46.02;100025.72;5062100;28;20028;-71
2021/08/06 07:01:47;;;;;;;2.10;1.17;;;;;;;22.47;46.17;100024.88;5063482;28;20029;-72
2021/08/06 07:04:12;;;;;;;2.90;1.50;;;;;;;22.46;45.63;100020.53;5063453;28;20013;-73
2021/08/06 07:06:38;;;;;;;2.35;1.30;;;;;;;22.32;45.67;100032.84;5063530;28;20031;-71
2021/08/06 07:09:07;;;;;;;4.45;1.25;;;;;;;22.25;44.85;100019.16;5063035;28;20031;-69
2021/08/06 07:11:32;;;;;;;1.85;1.23;;;;;;;22.23;45.35;100012.28;5063604;28;20479;-70
2021/08/06 07:13:58;;;;;;;2.28;1.20;;;;;;;22.57;44.86;100019.81;5062189;28;20449;-71
2021/08/06 07:16:23;;;;;;;2.75;1.20;;;;;;;22.71;44.03;100003.06;5062243;28;20045;-69
2021/08/06 07:18:49;;;;;;;1.73;1.40;;;;;;;22.95;42.06;100011.19;5063213;28;20029;-71
2021/08/06 07:21:14;;;;;;;3.58;0.98;;;;;;;22.90;42.71;99994.75;5063580;28;20100;-69
2021/08/06 07:23:40;;;;;;;1.50;1.00;;;;;;;22.87;42.28;100008.19;5063458;28;20060;-72
2021/08/06 07:26:05;;;;;;;1.75;1.17;;;;;;;22.71;42.69;100005.72;5063431;28;20033;-70
2021/08/06 07:28:30;;;;;;;1.83;0.95;;;;;;;22.56;42.17;100020.78;5063198;28;20501;-73
2021/08/06 07:30:56;;;;;;;3.58;1.30;;;;;;;22.27;42.43;100005.84;5061523;28;20024;-71
2021/08/06 07:33:24;;;;;;;1.80;1.20;;;;;;;22.08;43.14;99999.09;5061624;28;20081;-69
2021/08/06 07:35:49;;;;;;;1.60;1.00;;;;;;;22.11;43.13;100003.34;5063320;28;20056;-71
2021/08/06 07:38:15;;;;;;;1.50;1.08;;;;;;;22.23;43.18;99993.78;5063232;28;20044;-68
2021/08/06 07:40:40;;;;;;;2.30;1.00;;;;;;;22.47;42.31;100001.91;5062810;28;20021;-69
2021/08/06 07:43:06;;;;;;;2.97;1.20;;;;;;;22.48;41.38;100006.25;5063120;28;20025;-72
2021/08/06 07:45:31;;;;;;;3.25;1.30;;;;;;;22.12;42.55;99997.97;5063073;28;20032;-70
2021/08/06 07:47:57;;;;;;;2.92;1.35;;;;;;;22.23;42.56;100012.28;5063109;28;20084;-69
2021/08/06 07:50:22;;;;;;;2.13;1.27;;;;;;;22.28;42.60;99997.81;5063010;28;20039;-69
2021/08/06 07:52:47;;;;;;;1.73;1.13;;;;;;;22.59;42.05;99992.34;5063144;28;20021;-69
2021/08/06 07:55:15;;;;;;;2.75;1.58;;;;;;;22.66;42.22;99992.78;5062822;28;20057;-70
2021/08/06 07:57:41;;;;;;;2.33;1.10;;;;;;;22.84;42.41;99995.16;5062885;28;20021;-70
2021/08/06 08:00:07;;;;;;;1.80;1.10;;;;;;;22.88;41.40;99981.63;5061487;28;20071;-70
2021/08/06 08:02:32;;;;;;;3.03;1.38;;;;;;;22.89;41.48;99995.72;5062972;28;20037;-69
2021/08/06 08:04:57;;;;;;;1.98;1.10;;;;;;;23.11;40.71;99986.31;5061661;28;20013;-69
2021/08/06 08:07:23;;;;;;;5.43;1.20;;;;;;;23.27;39.37;99986.94;5063067;28;20282;-68
2021/08/06 08:09:48;;;;;;;5.82;1.15;;;;;;;23.20;39.74;99972.44;5062735;28;20025;-69
2021/08/06 08:12:14;;;;;;;2.67;1.00;;;;;;;23.44;39.71;99992.06;5062957;28;20025;-70
2021/08/06 08:14:39;;;;;;;1.52;0.88;;;;;;;23.59;39.29;99971.59;5062682;28;20028;-69
2021/08/06 08:17:05;;;;;;;5.68;1.40;;;;;;;23.72;38.79;99969.75;5062842;28;20029;-71
2021/08/06 08:19:30;;;;;;;6.07;1.50;;;;;;;23.81;39.14;99976.22;5062674;28;20017;-69
2021/08/06 08:21:55;;;;;;;1.52;0.93;;;;;;;24.03;38.21;99977.31;5066466;28;20082;-70
2021/08/06 08:24:21;;;;;;;4.13;1.33;;;;;;;24.04;38.17;99972.88;5066704;28;20021;-69
2021/08/06 08:26:46;;;;;;;2.90;1.40;;;;;;;23.95;38.06;99969.06;5065263;28;20078;-69
2021/08/06 08:29:11;;;;;;;3.17;1.20;;;;;;;23.89;38.88;99968.56;5066683;28;20025;-71
2021/08/06 08:31:37;;;;;;;7.07;1.30;;;;;;;23.94;38.64;99952.34;5066506;28;20056;-76
2021/08/06 08:34:03;;;;;;;2.95;1.40;;;;;;;23.88;38.07;99958.09;5066607;28;20473;-72
2021/08/06 08:36:28;;;;;;;2.72;1.15;;;;;;;23.88;37.35;99966.03;5066518;28;20021;-73
2021/08/06 08:38:55;;;;;;;1.60;1.00;;;;;;;23.92;37.39;99964.00;5066223;28;20049;-73
2021/08/06 08:41:20;;;;;;;4.40;1.50;;;;;;;24.11;37.65;99952.91;5066228;28;20025;-73
2021/08/06 08:43:46;;;;;;;4.65;1.00;;;;;;;24.30;36.43;99959.56;5064915;28;20024;-71
2021/08/06 08:46:11;;;;;;;1.98;1.17;;;;;;;24.33;35.41;99951.38;5064824;28;20021;-73
2021/08/06 08:48:37;;;;;;;4.85;1.00;;;;;;;23.95;36.95;99954.03;5065079;28;20028;-72
2021/08/06 08:51:04;;;;;;;1.80;0.98;;;;;;;24.07;36.10;99970.00;5066250;28;20070;-71
2021/08/06 08:53:30;;;;;;;4.55;1.15;;;;;;;23.84;36.41;99957.44;5066422;28;20044;-74
2021/08/06 08:55:56;;;;;;;2.38;0.70;;;;;;;23.93;36.04;99961.22;5066051;28;20021;-71
2021/08/06 08:58:22;;;;;;;2.33;1.23;;;;;;;23.98;36.20;99953.78;5065970;28;20517;-75
2021/08/06 09:00:48;;;;;;;2.03;1.00;;;;;;;24.18;35.52;99926.81;5066020;28;20033;-70
2021/08/06 09:03:38;;;;;;;1.58;0.90;;;;;;;24.57;34.97;99974.38;5064676;28;20016;-71
2021/08/06 09:06:05;;;;;;;3.13;1.25;;;;;;;24.41;35.12;99954.28;5066236;28;20019;-73
2021/08/06 09:08:30;;;;;;;5.10;1.30;;;;;;;24.03;35.99;99964.06;5065766;28;20089;-74
2021/08/06 09:10:55;;;;;;;1.33;1.00;;;;;;;24.02;36.08;99963.25;5065871;28;20021;-71
2021/08/06 09:13:23;;;;;;;3.45;1.55;;;;;;;23.62;36.78;99947.53;5065823;28;20036;-74
2021/08/06 09:15:52;;;;;;;2.20;1.20;;;;;;;24.11;36.35;99942.28;5065624;28;20394;-73
2021/08/06 09:18:23;;;;;;;2.47;1.30;;;;;;;24.62;36.20;99929.75;5065689;28;20061;-73
2021/08/06 09:20:52;;;;;;;1.67;1.02;;;;;;;25.12;34.56;99952.56;5065600;28;20025;-70
2021/08/06 09:23:39;;;;;;;2.78;1.10;;;;;;;25.37;34.37;99921.41;5065596;28;20033;-71
2021/08/06 09:26:06;;;;;;;1.58;0.98;;;;;;;25.29;34.42;99932.66;5065512;28;20021;-69
2021/08/06 09:28:32;;;;;;;2.33;1.23;;;;;;;25.18;34.52;99949.44;5065327;28;20025;-71
2021/08/06 09:31:12;;;;;;;2.13;1.05;;;;;;;25.42;33.87;99921.91;5064941;28;20063;-69
2021/08/06 09:33:38;;;;;;;5.75;1.40;;;;;;;25.05;35.18;99919.50;5065501;28;20035;-69
2021/08/06 09:36:11;;;;;;;3.10;1.30;;;;;;;24.95;35.46;99935.28;5065315;28;20033;-67
2021/08/06 09:38:36;;;;;;;2.92;1.30;;;;;;;24.98;35.37;99903.19;5065310;28;20041;-68
2021/08/06 09:41:02;;;;;;;4.20;1.40;;;;;;;25.02;34.97;99927.72;5065179;28;20072;-69
2021/08/06 09:43:27;;;;;;;2.42;1.38;;;;;;;24.91;35.45;99916.09;5065069;28;20025;-69
2021/08/06 09:45:53;;;;;;;4.68;1.50;;;;;;;24.93;35.43;99910.66;5065356;28;20042;-69
2021/08/06 09:48:26;;;;;;;3.95;1.27;;;;;;;24.81;35.94;99912.44;5065136;28;20063;-72
2021/08/06 09:50:52;;;;;;;4.25;1.35;;;;;;;24.98;36.00;99919.13;5065182;28;20036;-70
2021/08/06 09:53:20;;;;;;;1.88;1.25;;;;;;;25.12;35.50;99916.25;5065138;28;20025;-73
2021/08/06 09:55:49;;;;;;;3.22;1.30;;;;;;;25.41;35.43;99909.59;5063650;28;20558;-72
2021/08/06 09:58:17;;;;;;;5.28;1.35;;;;;;;25.24;34.82;99919.72;5064861;28;20021;-70
2021/08/06 10:00:46;;;;;;;2.65;1.33;;;;;;;25.03;35.56;99910.81;5065050;28;20035;-68
2021/08/06 10:03:29;;;;;;;2.22;1.23;;;;;;;24.78;36.29;99912.69;5064962;28;20067;-70
2021/08/06 10:06:08;;;;;;;1.38;0.90;;;;;;;25.31;35.06;99911.28;5064945;28;20094;-72
2021/08/06 10:08:33;;;;;;;2.97;1.10;;;;;;;25.22;34.96;99927.00;5064943;28;20297;-73
2021/08/06 10:10:59;;;;;;;3.72;1.05;;;;;;;25.23;35.53;99904.78;5064656;28;20108;-71
2021/08/06 10:13:25;;;;;;;1.75;1.10;;;;;;;24.95;36.42;99912.22;5064685;28;20021;-72
2021/08/06 10:15:51;;;;;;;1.45;1.00;;;;;;;24.64;36.25;99925.19;5064706;28;20036;-69
2021/08/06 10:18:16;;;;;;;2.38;0.80;;;;;;;24.63;36.41;99923.50;5064800;28;20405;-69
2021/08/06 10:20:42;;;;;;;1.25;0.82;;;;;;;24.41;36.58;99911.81;5064818;28;20029;-68
2021/08/06 10:23:07;;;;;;;2.25;1.08;;;;;;;23.65;38.20;99878.44;5064643;28;20504;-68
2021/08/06 10:25:33;;;;;;;2.58;1.27;;;;;;;23.50;38.83;99897.13;5064308;28;20108;-69
2021/08/06 10:27:59;;;;;;;2.35;1.20;;;;;;;23.93;38.33;99918.81;5064433;28;20032;-67
2021/08/06 10:30:30;;;;;;;1.35;1.02;;;;;;;24.41;37.87;99887.13;5064321;28;20036;-70
2021/08/06 10:33:22;;;;;;;2.10;1.40;;;;;;;24.92;36.50;99885.91;5062971;28;20016;-68
2021/08/06 10:35:49;;;;;;;2.92;1.38;;;;;;;24.65;36.85;99902.97;5061302;28;20056;-68
2021/08/06 10:38:31;;;;;;;3.78;1.13;;;;;;;24.71;36.48;99893.72;5062727;28;20056;-69
2021/08/06 10:40:56;;;;;;;2.10;1.27;;;;;;;24.52;36.96;99887.16;5062880;28;20098;-70
2021/08/06 10:43:38;;;;;;;5.60;1.20;;;;;;;24.61;36.70;99906.84;5063334;28;20092;-64
2021/08/06 10:46:05;;;;;;;2.40;1.20;;;;;;;24.80;36.10;99916.03;5064285;28;20029;-64
2021/08/06 10:48:51;;;;;;;1.42;1.10;;;;;;;24.72;36.05;99877.69;5063963;28;20047;-66
2021/08/06 10:51:16;;;;;;;2.95;1.30;;;;;;;24.81;36.29;99896.50;5064102;28;20418;-65
2021/08/06 10:54:07;;;;;;;3.20;1.20;;;;;;;24.91;35.91;99888.69;5064123;28;20025;-64
2021/08/06 10:56:35;;;;;;;2.25;1.40;;;;;;;24.60;36.47;99891.88;5064116;28;20025;-64
2021/08/06 10:59:11;;;;;;;3.13;1.13;;;;;;;24.44;36.78;99916.06;5064273;28;20033;-63
2021/08/06 11:01:46;;;;;;;1.60;1.00;;;;;;;24.44;36.45;99886.91;5064257;28;20029;-63
2021/08/06 11:04:11;;;;;;;1.90;1.27;;;;;;;24.16;37.14;99903.06;5063982;28;20017;-63
2021/08/06 11:06:49;;;;;;;3.40;1.35;;;;;;;23.85;37.83;99897.34;5063790;28;20032;-63
2021/08/06 11:09:26;;;;;;;2.28;1.40;;;;;;;23.62;38.56;99895.41;5063534;28;20385;-66
2021/08/06 11:11:59;;;;;;;2.58;1.27;;;;;;;23.40;39.01;99886.31;5063587;28;20025;-64
2021/08/06 11:14:28;;;;;;;1.92;1.23;;;;;;;23.26;39.19;99899.66;5063666;28;20025;-65
2021/08/06 11:17:02;;;;;;;2.13;1.20;;;;;;;22.94;39.56;99892.19;5063684;28;20100;-64
2021/08/06 11:19:29;;;;;;;4.22;1.25;;;;;;;22.91;39.60;99874.69;5063441;28;20028;-72
2021/08/06 11:21:56;;;;;;;3.88;1.50;;;;;;;22.74;40.34;99889.94;5062110;28;20035;-71
2021/08/06 11:24:22;;;;;;;3.08;1.55;;;;;;;22.56;40.87;99875.31;5063249;28;20017;-70
2021/08/06 11:26:49;;;;;;;3.25;1.30;;;;;;;22.67;40.82;99885.19;5063463;28;20036;-70